LFBY/XDA METAR and TAF weather

Enter ICAO airport designator
Station Type Date Time Source
LFBY METAR 2019/10/20 18:30 UTC NOAA

LFBY 201830Z AUTO VRB01KT 7000 // FEW020/// BKN033/// BKN042/// ///CB 12/11 Q1012


Station Type Date Time Source
LFBY Decoded METAR 2019/10/20 18:30 UTC NOAA

Dax, France (LFBY) 43-41N 001-04W 32M
Oct 20, 2019 - 02:30 PM EDT / 2019.10.20 1830 UTC
Wind: Variable at 1 MPH (1 KT):0
Visibility: 4 mile(s):0
Sky conditions: mostly cloudy
Weather: Cumulonimbus clouds observed
Temperature: 53 F (12 C)
Dew Point: 51 F (11 C)
Relative Humidity: 93%
Pressure (altimeter): 29.88 in. Hg (1012 hPa)
ob: LFBY 201830Z AUTO VRB01KT 7000 // FEW020/// BKN033/// BKN042/// ///CB 12/11 Q1012
cycle: 18

Station Type Date Time Source
LFBY TAF UTC NOAA

Error!

Example: see airport list